createdAt,value
2022-09-16T00:04:15.952Z,99096.55
2022-09-16T00:13:49.976Z,99090.47
2022-09-16T00:23:22.824Z,99088.59
2022-09-16T00:32:58.739Z,99087.91
2022-09-16T00:42:33.083Z,99084.18
2022-09-16T00:52:07.277Z,99083.52
2022-09-16T01:01:41.454Z,99082.52
2022-09-16T01:11:15.731Z,99079.58
2022-09-16T01:20:49.951Z,99076.81
2022-09-16T01:30:22.880Z,99078.98
2022-09-16T01:39:57.223Z,99085.27
2022-09-16T01:49:31.620Z,99086.09
2022-09-16T01:59:05.756Z,99088.94
2022-09-16T02:08:39.914Z,99091.98
2022-09-16T02:18:14.505Z,99082.16
2022-09-16T02:27:50.268Z,99079.54
2022-09-16T02:37:23.897Z,99082.33
2022-09-16T02:46:59.018Z,99085.63
2022-09-16T02:56:31.721Z,99078.56
2022-09-16T03:06:05.331Z,99082.68
2022-09-16T03:15:39.585Z,99087.00
2022-09-16T03:25:14.342Z,99072.80
2022-09-16T03:34:50.111Z,99067.02
2022-09-16T03:44:22.586Z,99064.09
2022-09-16T03:53:56.978Z,99061.70
2022-09-16T04:03:33.562Z,99061.08
2022-09-16T04:13:05.931Z,99057.44
2022-09-16T04:22:40.033Z,99053.42
2022-09-16T04:32:14.518Z,99049.75
2022-09-16T04:41:50.313Z,99040.81
2022-09-16T04:51:23.292Z,99050.19
2022-09-16T05:00:59.333Z,99051.50
2022-09-16T05:10:31.718Z,99054.95
2022-09-16T05:20:06.160Z,99054.27
2022-09-16T05:29:40.482Z,99055.43
2022-09-16T05:39:24.986Z,99057.16
2022-09-16T05:48:49.026Z,99064.77
2022-09-16T05:58:23.545Z,99070.17
2022-09-16T06:07:59.328Z,99065.56
2022-09-16T06:17:31.839Z,99067.30
2022-09-16T06:27:06.433Z,99065.14
2022-09-16T06:36:44.946Z,99061.41
2022-09-16T06:46:17.858Z,99057.68
2022-09-16T06:55:52.442Z,99059.28
2022-09-16T07:05:24.842Z,99063.30
2022-09-16T07:14:59.634Z,99071.53
2022-09-16T07:24:34.757Z,99066.48
2022-09-16T07:25:37.388Z,99064.36
2022-09-16T07:35:12.843Z,99072.52
2022-09-16T07:36:15.154Z,99073.16
2022-09-16T07:37:17.661Z,99073.13
2022-09-16T07:38:21.733Z,99074.86
2022-09-16T07:39:24.108Z,99075.90
2022-09-16T07:40:29.589Z,99073.19
2022-09-16T07:41:28.970Z,99079.17
2022-09-16T07:42:31.500Z,99075.19
2022-09-16T07:52:04.107Z,99079.11
2022-09-16T07:53:06.630Z,99084.06
2022-09-16T07:54:09.111Z,99082.40
2022-09-16T07:55:13.161Z,99084.86
2022-09-16T07:56:15.491Z,99080.88
2022-09-16T07:57:17.943Z,99079.83
2022-09-16T07:58:20.413Z,99083.70
2022-09-16T07:59:22.864Z,99081.87
2022-09-16T08:00:26.955Z,99081.38
2022-09-16T08:01:29.337Z,99079.63
2022-09-16T08:02:31.816Z,99082.23
2022-09-16T08:03:34.214Z,99077.91
2022-09-16T08:04:36.786Z,99079.76
2022-09-16T08:05:39.238Z,99078.61
2022-09-16T08:06:43.250Z,99084.12
2022-09-16T08:07:45.653Z,99079.02
2022-09-16T08:08:48.082Z,99078.59
2022-09-16T08:09:51.358Z,99079.95
2022-09-16T08:10:54.596Z,99078.48
2022-09-16T08:20:27.260Z,99078.34
2022-09-16T08:21:29.635Z,99078.05
2022-09-16T08:22:32.129Z,99078.59
2022-09-16T08:23:36.173Z,99079.82
2022-09-16T08:24:40.131Z,99086.72
2022-09-16T08:25:42.433Z,99084.80
2022-09-16T08:26:44.963Z,99086.67
2022-09-16T08:27:47.409Z,99091.45
2022-09-16T08:29:08.719Z,99087.95
2022-09-16T08:29:53.917Z,99086.62
2022-09-16T08:30:56.214Z,99088.77
2022-09-16T08:32:00.475Z,99083.50
2022-09-16T08:33:02.706Z,99085.27
2022-09-16T08:34:05.196Z,99082.63
2022-09-16T08:35:07.611Z,99080.91
2022-09-16T08:36:10.071Z,99082.72
2022-09-16T08:37:12.508Z,99084.52
2022-09-16T08:38:16.619Z,99095.13
2022-09-16T08:39:20.528Z,99087.70
2022-09-16T08:40:24.484Z,99090.69
2022-09-16T08:41:27.035Z,99091.68
2022-09-16T08:42:30.874Z,99095.69
2022-09-16T08:43:33.214Z,99089.95
2022-09-16T08:44:35.739Z,99090.97
2022-09-16T08:45:38.254Z,99091.57
2022-09-16T08:46:42.257Z,99093.89
2022-09-16T08:47:44.610Z,99093.11
2022-09-16T08:48:47.091Z,99096.11
2022-09-16T08:49:49.577Z,99091.81
2022-09-16T08:50:52.079Z,99093.17
2022-09-16T08:51:54.555Z,99095.83
2022-09-16T08:52:58.596Z,99092.98
2022-09-16T08:54:00.970Z,99096.33
2022-09-16T08:55:03.363Z,99087.92
2022-09-16T08:56:05.881Z,99095.56
2022-09-16T08:57:09.901Z,99097.24
2022-09-16T08:58:12.212Z,99090.56
2022-09-16T08:59:14.710Z,99086.73
2022-09-16T09:00:17.194Z,99082.98
2022-09-16T09:01:19.741Z,99082.92
2022-09-16T09:02:24.121Z,99080.86
2022-09-16T09:03:27.712Z,99087.08
2022-09-16T09:04:31.600Z,99084.83
2022-09-16T09:05:35.580Z,99079.02
2022-09-16T09:06:39.534Z,99079.34
2022-09-16T09:07:43.450Z,99085.78
2022-09-16T09:08:45.949Z,99084.77
2022-09-16T09:09:49.600Z,99088.02
2022-09-16T09:10:51.986Z,99087.55
2022-09-16T09:11:56.755Z,99088.15
2022-09-16T09:12:59.380Z,99088.69
2022-09-16T09:14:00.800Z,99087.72
2022-09-16T09:15:03.247Z,99084.84
2022-09-16T09:24:36.418Z,99080.23
2022-09-16T09:25:38.923Z,99084.67
2022-09-16T09:26:41.403Z,99073.27
2022-09-16T09:27:43.906Z,99076.31
2022-09-16T09:28:46.439Z,99078.86
2022-09-16T09:29:50.610Z,99083.86
2022-09-16T09:30:52.953Z,99084.50
2022-09-16T09:31:55.432Z,99077.46
2022-09-16T09:32:57.826Z,99077.69
2022-09-16T09:34:00.351Z,99075.47
2022-09-16T09:35:02.822Z,99077.79
2022-09-16T09:36:05.270Z,99072.34
2022-09-16T09:37:07.761Z,99074.70
2022-09-16T09:38:10.275Z,99075.92
2022-09-16T09:39:14.735Z,99078.20
2022-09-16T09:40:17.144Z,99087.42
2022-09-16T09:41:20.550Z,99079.98
2022-09-16T09:42:22.926Z,99084.06
2022-09-16T09:43:25.399Z,99080.03
2022-09-16T09:44:27.857Z,99074.75
2022-09-16T09:45:30.406Z,99079.22
2022-09-16T09:46:32.930Z,99076.64
2022-09-16T09:47:37.054Z,99074.96
2022-09-16T09:48:39.409Z,99076.16
2022-09-16T09:49:41.854Z,99080.25
2022-09-16T09:50:46.395Z,99076.67
2022-09-16T09:51:48.670Z,99071.34
2022-09-16T09:52:51.157Z,99071.70
2022-09-16T09:53:53.738Z,99067.98
2022-09-16T09:54:56.176Z,99071.30
2022-09-16T09:56:00.217Z,99066.67
2022-09-16T09:57:02.634Z,99068.42
2022-09-16T09:58:05.077Z,99063.88
2022-09-16T09:59:09.168Z,99071.68
2022-09-16T10:00:13.146Z,99076.86
2022-09-16T10:01:15.520Z,99073.77
2022-09-16T10:02:18.087Z,99071.93
2022-09-16T10:03:20.422Z,99072.09
2022-09-16T10:04:24.441Z,99070.45
2022-09-16T10:05:26.856Z,99071.53
2022-09-16T10:06:29.245Z,99067.11
2022-09-16T10:07:33.372Z,99069.83
2022-09-16T10:08:35.751Z,99068.30
2022-09-16T10:09:39.845Z,99072.57
2022-09-16T10:10:42.204Z,99078.29
2022-09-16T10:11:44.663Z,99072.08
2022-09-16T10:12:49.008Z,99072.20
2022-09-16T10:13:51.284Z,99076.91
2022-09-16T10:14:55.339Z,99072.88
2022-09-16T10:15:59.300Z,99070.73
2022-09-16T10:17:01.584Z,99072.91
2022-09-16T10:18:05.725Z,99069.48
2022-09-16T10:19:08.071Z,99073.66
2022-09-16T10:20:10.569Z,99075.23
2022-09-16T10:21:14.580Z,99073.48
2022-09-16T10:22:16.918Z,99073.61
2022-09-16T10:23:19.422Z,99075.59
2022-09-16T10:24:21.866Z,99073.94
2022-09-16T10:25:25.893Z,99077.01
2022-09-16T10:26:28.255Z,99074.28
2022-09-16T10:27:32.346Z,99076.23
2022-09-16T10:28:34.615Z,99072.75
2022-09-16T10:29:37.061Z,99072.94
2022-09-16T10:30:41.095Z,99069.50
2022-09-16T10:31:45.062Z,99073.36
2022-09-16T10:32:47.316Z,99071.59
2022-09-16T10:33:49.781Z,99073.36
2022-09-16T10:34:52.220Z,99068.77
2022-09-16T10:35:54.685Z,99066.59
2022-09-16T10:36:57.164Z,99069.38
2022-09-16T10:38:01.329Z,99064.87
2022-09-16T10:39:04.573Z,99067.59
2022-09-16T10:40:06.179Z,99065.22
2022-09-16T10:41:10.225Z,99063.06
2022-09-16T10:42:12.714Z,99060.61
2022-09-16T10:43:15.134Z,99061.11
2022-09-16T10:44:17.833Z,99059.31
2022-09-16T10:45:20.029Z,99063.07
2022-09-16T10:46:22.621Z,99061.05
2022-09-16T10:47:24.968Z,99062.27
2022-09-16T10:48:27.447Z,99059.42
2022-09-16T10:49:29.881Z,99057.41
2022-09-16T10:50:32.408Z,99060.30
2022-09-16T10:51:34.823Z,99056.50
2022-09-16T10:52:37.291Z,99054.59
2022-09-16T10:53:44.141Z,99053.40
2022-09-16T10:54:43.757Z,99056.52
2022-09-16T10:55:46.187Z,99058.36
2022-09-16T10:56:48.689Z,99060.88
2022-09-16T10:57:51.165Z,99058.89
2022-09-16T10:58:53.704Z,99058.58
2022-09-16T10:59:57.792Z,99053.62
2022-09-16T11:01:00.392Z,99056.72
2022-09-16T11:02:04.683Z,99050.70
2022-09-16T11:03:06.690Z,99057.79
2022-09-16T11:04:10.810Z,99057.08
2022-09-16T11:05:13.171Z,99060.58
2022-09-16T11:06:15.609Z,99057.61
2022-09-16T11:07:19.668Z,99054.66
2022-09-16T11:08:21.969Z,99060.82
2022-09-16T11:09:24.451Z,99057.25
2022-09-16T11:10:26.900Z,99054.69
2022-09-16T11:11:29.460Z,99057.33
2022-09-16T11:12:31.897Z,99058.50
2022-09-16T11:13:35.959Z,99058.38
2022-09-16T11:14:38.321Z,99058.28
2022-09-16T11:15:40.771Z,99058.41
2022-09-16T11:16:43.289Z,99059.69
2022-09-16T11:17:45.536Z,99054.66
2022-09-16T11:18:49.409Z,99057.95
2022-09-16T11:19:50.497Z,99056.59
2022-09-16T11:20:52.948Z,99056.84
2022-09-16T11:21:55.495Z,99061.69
2022-09-16T11:22:57.983Z,99054.74
2022-09-16T11:24:02.110Z,99061.27
2022-09-16T11:25:06.018Z,99057.66
2022-09-16T11:26:08.511Z,99059.13
2022-09-16T11:27:12.609Z,99060.67
2022-09-16T11:28:14.980Z,99061.59
2022-09-16T11:29:17.394Z,99061.83
2022-09-16T11:30:21.481Z,99061.32
2022-09-16T11:31:23.943Z,99064.22
2022-09-16T11:32:26.369Z,99061.02
2022-09-16T11:33:28.825Z,99061.50
2022-09-16T11:34:31.268Z,99067.30
2022-09-16T11:35:33.762Z,99063.66
2022-09-16T11:36:36.239Z,99070.66
2022-09-16T11:37:38.729Z,99072.19
2022-09-16T11:38:45.390Z,99070.70
2022-09-16T11:39:45.973Z,99069.11
2022-09-16T11:40:48.486Z,99072.55
2022-09-16T11:41:50.978Z,99075.75
2022-09-16T11:42:53.417Z,99073.44
2022-09-16T11:43:57.500Z,99075.45
2022-09-16T11:44:59.821Z,99080.34
2022-09-16T11:46:02.314Z,99072.48
2022-09-16T11:47:04.846Z,99072.34
2022-09-16T11:48:07.284Z,99072.77
2022-09-16T11:49:11.352Z,99075.49
2022-09-16T11:50:13.663Z,99072.03
2022-09-16T11:51:16.170Z,99070.33
2022-09-16T11:52:20.190Z,99071.20
2022-09-16T11:53:25.257Z,99070.23
2022-09-16T11:54:26.668Z,99069.47
2022-09-16T11:55:30.568Z,99069.45
2022-09-16T11:56:32.873Z,99073.05
2022-09-16T11:57:36.999Z,99067.53
2022-09-16T11:58:39.370Z,99067.75
2022-09-16T11:59:41.936Z,99066.50
2022-09-16T12:00:46.030Z,99061.72
2022-09-16T12:10:16.847Z,99064.75
2022-09-16T12:11:19.307Z,99061.52
2022-09-16T12:12:21.838Z,99058.21
2022-09-16T12:13:24.233Z,99060.23
2022-09-16T12:14:26.777Z,99061.67
2022-09-16T12:15:29.511Z,99066.31
2022-09-16T12:16:32.537Z,99067.14
2022-09-16T12:17:36.166Z,99067.60
2022-09-16T12:18:38.501Z,99065.74
2022-09-16T12:19:41.013Z,99066.08
2022-09-16T12:20:43.475Z,99065.34
2022-09-16T12:21:45.892Z,99065.06
2022-09-16T12:22:50.081Z,99063.81
2022-09-16T12:23:54.044Z,99064.58
2022-09-16T12:24:56.432Z,99065.25
2022-09-16T12:26:00.510Z,99066.34
2022-09-16T12:27:02.876Z,99065.90
2022-09-16T12:28:05.336Z,99061.13
2022-09-16T12:29:07.878Z,99060.57
2022-09-16T12:30:10.447Z,99061.89
2022-09-16T12:31:12.932Z,99062.94
2022-09-16T12:32:15.322Z,99061.14
2022-09-16T12:33:17.847Z,99056.59
2022-09-16T12:34:20.266Z,99056.23
2022-09-16T12:35:24.318Z,99053.88
2022-09-16T12:36:26.695Z,99055.59
2022-09-16T12:37:30.757Z,99051.69
2022-09-16T12:38:34.763Z,99050.19
2022-09-16T12:39:37.150Z,99050.94
2022-09-16T12:40:39.604Z,99045.74
2022-09-16T12:41:42.085Z,99049.38
2022-09-16T12:42:46.546Z,99052.55
2022-09-16T12:43:48.621Z,99050.84
2022-09-16T12:44:51.193Z,99051.56
2022-09-16T12:45:53.645Z,99050.33
2022-09-16T12:46:57.739Z,99051.84
2022-09-16T12:47:59.992Z,99046.27
2022-09-16T12:49:02.427Z,99041.41
2022-09-16T12:50:05.053Z,99048.06
2022-09-16T12:59:37.214Z,99048.41
2022-09-16T13:00:39.701Z,99049.83
2022-09-16T13:01:42.295Z,99051.11
2022-09-16T13:02:44.735Z,99055.91
2022-09-16T13:03:47.188Z,99052.45
2022-09-16T13:04:50.621Z,99055.56
2022-09-16T13:05:53.020Z,99065.30
2022-09-16T13:06:55.485Z,99059.97
2022-09-16T13:07:59.485Z,99066.33
2022-09-16T13:09:01.813Z,99066.63
2022-09-16T13:10:04.297Z,99059.28
2022-09-16T13:11:51.364Z,99067.98
2022-09-16T13:12:37.974Z,99061.56
2022-09-16T13:13:11.654Z,99059.72
2022-09-16T13:14:15.721Z,99060.41
2022-09-16T13:15:19.643Z,99066.24
2022-09-16T13:16:23.581Z,99065.94
2022-09-16T13:17:25.826Z,99056.02
2022-09-16T13:18:28.293Z,99061.65
2022-09-16T13:19:32.338Z,99049.60
2022-09-16T13:20:36.339Z,99053.83
2022-09-16T13:21:38.647Z,99049.38
2022-09-16T13:22:41.319Z,99051.66
2022-09-16T13:23:43.909Z,99047.75
2022-09-16T13:24:46.322Z,99046.41
2022-09-16T13:25:50.418Z,99052.75
2022-09-16T13:26:54.397Z,99049.24
2022-09-16T13:27:58.382Z,99044.41
2022-09-16T13:29:00.721Z,99045.72
2022-09-16T13:30:03.355Z,99046.53
2022-09-16T13:31:06.114Z,99047.88
2022-09-16T13:32:10.192Z,99041.11
2022-09-16T13:33:12.656Z,99044.99
2022-09-16T13:34:15.101Z,99040.95
2022-09-16T13:35:17.615Z,99035.18
2022-09-16T13:36:20.099Z,99039.68
2022-09-16T13:37:24.165Z,99040.53
2022-09-16T13:38:26.497Z,99041.25
2022-09-16T13:39:28.965Z,99037.56
2022-09-16T13:40:31.591Z,99038.52
2022-09-16T13:41:33.926Z,99035.27
2022-09-16T13:42:36.369Z,99032.77
2022-09-16T13:43:38.875Z,99044.33
2022-09-16T13:44:41.385Z,99038.88
2022-09-16T13:45:44.016Z,99042.70
2022-09-16T13:46:46.548Z,99038.95
2022-09-16T13:47:49.044Z,99041.69
2022-09-16T13:48:53.226Z,99041.68
2022-09-16T13:49:57.095Z,99039.59
2022-09-16T13:50:59.405Z,99039.05
2022-09-16T13:52:01.890Z,99041.44
2022-09-16T13:53:04.414Z,99036.30
2022-09-16T13:54:06.849Z,99039.41
2022-09-16T13:55:10.764Z,99040.42
2022-09-16T13:56:11.774Z,99038.14
2022-09-16T13:57:14.227Z,99039.81
2022-09-16T13:58:18.267Z,99038.63
2022-09-16T13:59:22.213Z,99037.83
2022-09-16T14:00:24.490Z,99043.02
2022-09-16T14:01:28.264Z,99042.02
2022-09-16T14:02:29.542Z,99045.27
2022-09-16T14:03:31.996Z,99043.39
2022-09-16T14:04:34.356Z,99041.02
2022-09-16T14:05:38.393Z,99046.59
2022-09-16T14:06:42.427Z,99039.97
2022-09-16T14:07:44.739Z,99038.23
2022-09-16T14:08:47.189Z,99035.70
2022-09-16T14:09:54.758Z,99040.39
2022-09-16T14:10:53.612Z,99031.07
2022-09-16T14:11:56.036Z,99037.31
2022-09-16T14:12:58.518Z,99034.09
2022-09-16T14:14:05.694Z,99043.63
2022-09-16T14:15:03.547Z,99051.81
2022-09-16T14:16:06.068Z,99042.58
2022-09-16T14:17:08.535Z,99046.69
2022-09-16T14:18:10.984Z,99047.42
2022-09-16T14:19:13.515Z,99045.19
2022-09-16T14:20:15.859Z,99050.61
2022-09-16T14:21:18.338Z,99051.82
2022-09-16T14:22:22.426Z,99049.63
2022-09-16T14:23:24.818Z,99050.75
2022-09-16T14:24:27.279Z,99050.83
2022-09-16T14:25:30.171Z,99049.59
2022-09-16T14:26:33.838Z,99051.48
2022-09-16T14:27:36.165Z,99047.77
2022-09-16T14:28:39.443Z,99046.01
2022-09-16T14:29:41.287Z,99048.90
2022-09-16T14:30:43.757Z,99046.50
2022-09-16T14:31:47.823Z,99040.86
2022-09-16T14:32:50.146Z,99046.42
2022-09-16T14:33:55.793Z,99043.15
2022-09-16T14:34:56.471Z,99040.61
2022-09-16T14:35:58.989Z,99042.32
2022-09-16T14:37:03.034Z,99043.58
2022-09-16T14:38:14.257Z,99045.83
2022-09-16T14:39:09.529Z,99041.27
2022-09-16T14:40:11.886Z,99045.55
2022-09-16T14:41:14.311Z,99042.34
2022-09-16T14:42:16.768Z,99042.89
2022-09-16T14:43:19.270Z,99040.89
2022-09-16T14:44:23.404Z,99044.53
2022-09-16T14:45:25.739Z,99043.70
2022-09-16T14:46:28.226Z,99043.34
2022-09-16T14:47:49.949Z,99043.39
2022-09-16T14:48:34.798Z,99047.38
2022-09-16T14:49:37.098Z,99047.64
2022-09-16T14:50:39.570Z,99045.70
2022-09-16T14:51:41.979Z,99044.85
2022-09-16T14:52:44.576Z,99043.42
2022-09-16T14:54:01.879Z,99045.70
2022-09-16T14:54:49.437Z,99046.92
2022-09-16T14:56:55.842Z,99043.55
2022-09-16T14:57:58.255Z,99042.28
2022-09-16T14:59:02.335Z,99041.37
2022-09-16T15:00:04.647Z,99046.27
2022-09-16T15:01:08.860Z,99046.11
2022-09-16T15:02:09.559Z,99045.88
2022-09-16T15:03:12.073Z,99042.95
2022-09-16T15:04:16.131Z,99045.49
2022-09-16T15:05:18.438Z,99044.08
2022-09-16T15:06:20.935Z,99047.28
2022-09-16T15:07:24.962Z,99046.05
2022-09-16T15:08:27.336Z,99042.52
2022-09-16T15:09:29.758Z,99047.91
2022-09-16T15:10:44.533Z,99056.44
2022-09-16T15:11:47.386Z,99057.64
2022-09-16T15:12:40.161Z,99059.09
2022-09-16T15:13:42.473Z,99062.03
2022-09-16T15:14:44.909Z,99062.23
2022-09-16T15:15:49.026Z,99061.42
2022-09-16T15:16:51.337Z,99064.17
2022-09-16T15:17:57.756Z,99066.61
2022-09-16T15:18:56.194Z,99067.20
2022-09-16T15:19:58.638Z,99086.57
2022-09-16T15:21:01.103Z,99100.42
2022-09-16T15:22:03.594Z,99112.49
2022-09-16T15:23:08.626Z,99107.69
2022-09-16T15:24:08.468Z,99111.39
2022-09-16T15:25:12.500Z,99109.88
2022-09-16T15:26:14.793Z,99110.39
2022-09-16T15:27:17.264Z,99113.41
2022-09-16T15:28:19.630Z,99110.58
2022-09-16T15:29:23.645Z,99113.50
2022-09-16T15:30:27.729Z,99116.95
2022-09-16T15:31:30.101Z,99117.61
2022-09-16T15:32:32.506Z,99118.33
2022-09-16T15:33:36.539Z,99111.20
2022-09-16T15:34:40.578Z,99117.54
2022-09-16T15:35:42.921Z,99118.23
2022-09-16T15:36:45.303Z,99121.24
2022-09-16T15:37:47.768Z,99122.09
2022-09-16T15:38:50.221Z,99113.83
2022-09-16T15:39:54.274Z,99119.02
2022-09-16T15:40:56.551Z,99119.61
2022-09-16T15:42:00.597Z,99116.94
2022-09-16T15:43:04.499Z,99117.81
2022-09-16T15:44:07.051Z,99116.74
2022-09-16T15:45:09.214Z,99122.81
2022-09-16T15:46:13.344Z,99121.52
2022-09-16T15:47:17.241Z,99120.86
2022-09-16T15:48:19.531Z,99116.91
2022-09-16T15:49:23.542Z,99122.17
2022-09-16T15:50:27.565Z,99121.17
2022-09-16T15:51:29.927Z,99114.44
2022-09-16T15:52:34.263Z,99111.33
2022-09-16T15:53:36.616Z,99108.63
2022-09-16T15:54:40.664Z,99108.45
2022-09-16T15:55:42.990Z,99106.98
2022-09-16T15:56:45.407Z,99109.05
2022-09-16T15:57:48.012Z,99105.44
2022-09-16T15:58:50.407Z,99099.27
2022-09-16T15:59:52.861Z,99098.33
2022-09-16T16:00:55.312Z,99103.86
2022-09-16T16:01:59.413Z,99109.26
2022-09-16T16:03:01.756Z,99117.41
2022-09-16T16:04:05.688Z,99111.53
2022-09-16T16:05:08.000Z,99109.38
2022-09-16T16:06:12.056Z,99110.03
2022-09-16T16:07:15.907Z,99109.88
2022-09-16T16:08:18.257Z,99108.52
2022-09-16T16:09:20.708Z,99106.84
2022-09-16T16:10:23.166Z,99106.03
2022-09-16T16:11:25.581Z,99101.13
2022-09-16T16:12:29.635Z,99101.91
2022-09-16T16:13:32.001Z,99098.84
2022-09-16T16:14:34.614Z,99098.57
2022-09-16T16:15:37.176Z,99095.13
2022-09-16T16:16:55.436Z,99094.72
2022-09-16T16:17:43.707Z,99098.85
2022-09-16T16:18:46.035Z,99098.21
2022-09-16T16:19:50.214Z,99100.52
2022-09-16T16:20:52.601Z,99098.72
2022-09-16T16:21:55.069Z,99100.10
2022-09-16T16:22:57.721Z,99103.59
2022-09-16T16:24:00.043Z,99098.41
2022-09-16T16:25:04.028Z,99102.04
2022-09-16T16:26:06.302Z,99102.67
2022-09-16T16:27:08.841Z,99100.91
2022-09-16T16:28:11.300Z,99098.02
2022-09-16T16:29:13.759Z,99098.81
2022-09-16T16:30:16.258Z,99100.23
2022-09-16T16:31:18.806Z,99098.05
2022-09-16T16:32:21.317Z,99091.84
2022-09-16T16:33:23.724Z,99094.59
2022-09-16T16:34:26.231Z,99097.42
2022-09-16T16:35:30.303Z,99097.80
2022-09-16T16:36:32.683Z,99093.24
2022-09-16T16:37:52.229Z,99098.09
2022-09-16T16:38:40.678Z,99091.46
2022-09-16T16:39:44.555Z,99089.96
2022-09-16T16:40:48.489Z,99086.22
2022-09-16T16:41:50.744Z,99088.05
2022-09-16T16:42:53.172Z,99091.88
2022-09-16T16:43:55.629Z,99086.63
2022-09-16T16:44:59.670Z,99095.14
2022-09-16T16:46:02.097Z,99088.22
2022-09-16T16:47:04.389Z,99091.94
2022-09-16T16:48:08.537Z,99087.84
2022-09-16T16:49:10.875Z,99095.80
2022-09-16T16:50:15.017Z,99096.64
2022-09-16T16:51:17.292Z,99100.73
2022-09-16T16:52:19.734Z,99093.46
2022-09-16T16:53:22.177Z,99095.17
2022-09-16T16:54:26.245Z,99096.57
2022-09-16T16:55:28.647Z,99093.15
2022-09-16T16:56:32.599Z,99087.91
2022-09-16T16:57:34.903Z,99082.12
2022-09-16T16:58:39.008Z,99086.59
2022-09-16T16:59:41.373Z,99083.91
2022-09-16T17:00:43.807Z,99083.71
2022-09-16T17:01:48.885Z,99084.03
2022-09-16T17:02:50.225Z,99086.45
2022-09-16T17:03:52.698Z,99090.56
2022-09-16T17:04:56.711Z,99086.09
2022-09-16T17:05:59.034Z,99085.53
2022-09-16T17:07:24.448Z,99086.86
2022-09-16T17:08:07.055Z,99093.26
2022-09-16T17:09:13.655Z,99094.85
2022-09-16T17:10:11.929Z,99088.56
2022-09-16T17:11:15.970Z,99088.55
2022-09-16T17:12:19.885Z,99088.09
2022-09-16T17:13:22.189Z,99089.03
2022-09-16T17:14:24.662Z,99088.50
2022-09-16T17:15:27.219Z,99086.22
2022-09-16T17:16:29.554Z,99092.81
2022-09-16T17:17:33.640Z,99091.16
2022-09-16T17:18:35.972Z,99086.56
2022-09-16T17:19:38.492Z,99087.41
2022-09-16T17:20:41.099Z,99094.38
2022-09-16T17:21:45.108Z,99096.03
2022-09-16T17:22:47.561Z,99099.45
2022-09-16T17:23:49.880Z,99096.70
2022-09-16T17:24:53.923Z,99098.22
2022-09-16T17:25:57.811Z,99100.48
2022-09-16T17:27:01.720Z,99097.33
2022-09-16T17:28:03.972Z,99098.27
2022-09-16T17:29:13.424Z,99099.67
2022-09-16T17:30:08.890Z,99101.16
2022-09-16T17:31:11.348Z,99107.52
2022-09-16T17:32:13.731Z,99105.38
2022-09-16T17:33:16.154Z,99114.16
2022-09-16T17:34:20.172Z,99114.20
2022-09-16T17:35:22.478Z,99113.90
2022-09-16T17:36:24.928Z,99114.67
2022-09-16T17:37:27.336Z,99117.73
2022-09-16T17:38:29.808Z,99117.97
2022-09-16T17:39:32.281Z,99112.97
2022-09-16T17:40:34.778Z,99113.16
2022-09-16T17:41:37.151Z,99112.56
2022-09-16T17:42:39.539Z,99113.77
2022-09-16T17:43:42.261Z,99113.05
2022-09-16T17:53:15.061Z,99124.89
2022-09-16T17:54:17.450Z,99122.59
2022-09-16T18:03:50.210Z,99134.05
2022-09-16T18:13:23.103Z,99139.21
2022-09-16T18:14:27.208Z,99143.83
2022-09-16T18:15:31.233Z,99146.14
2022-09-16T18:25:02.441Z,99153.66
2022-09-16T18:34:37.813Z,99169.33
2022-09-16T18:44:10.203Z,99177.72
2022-09-16T18:53:44.217Z,99177.48
2022-09-16T19:03:17.295Z,99175.73
2022-09-16T19:12:51.602Z,99179.43
2022-09-16T19:22:25.285Z,99195.34
2022-09-16T19:31:59.487Z,99198.13
2022-09-16T19:41:33.906Z,99202.52
2022-09-16T19:51:09.950Z,99199.20
2022-09-16T20:00:55.713Z,99206.53
2022-09-16T20:10:18.208Z,99213.16
2022-09-16T20:19:52.420Z,99229.34
2022-09-16T20:29:26.406Z,99226.53
2022-09-16T20:39:00.431Z,99225.64
2022-09-16T20:48:32.484Z,99224.87
2022-09-16T20:58:06.515Z,99221.80
2022-09-16T21:07:41.947Z,99223.88
2022-09-16T21:17:16.270Z,99217.78
2022-09-16T21:26:48.840Z,99233.38
2022-09-16T21:36:22.975Z,99253.48
2022-09-16T21:45:57.292Z,99255.25
2022-09-16T21:55:31.195Z,99260.67
2022-09-16T22:05:06.866Z,99254.27
2022-09-16T22:14:40.902Z,99260.24
2022-09-16T22:24:13.214Z,99266.24
2022-09-16T22:33:47.389Z,99268.53
2022-09-16T22:43:21.222Z,99262.58
2022-09-16T22:52:56.865Z,99265.41
2022-09-16T23:02:28.894Z,99260.52
2022-09-16T23:12:04.111Z,99261.59
2022-09-16T23:21:37.800Z,99265.48
2022-09-16T23:31:11.368Z,99263.28
2022-09-16T23:40:44.883Z,99256.25
2022-09-16T23:50:16.871Z,99249.16
2022-09-16T23:59:51.168Z,99246.92
